Elbow Lake, MN (56531)

7:26 AM CDT on October 23, 2014 (GMT -0500)
Elbow Lake | Change Station
CLOSE
Current Station
Airport
Location: Elbow Lake,
Elevation: 1204 ft
Nearby Weather Stations

Elev 1204 ft 45.99 °N, 95.99 °W | Updated 11 minutes ago

Clear
Clear
41 °F
Feels Like 36 °F
N
7
Wind Variable Wind from South

Today
High -- | Low -- °F
--% Chance of Precip.
Yesterday
High -- | Low -- °F
Precip. -- in
7:51 AM 6:23 PM
Waning Crescent, 0% visible
Pressure 29.95 in
Visibility 5.0 miles
Clouds Clear
Windchill 36 °F
Dew Point 41 °F
Humidity 100%
Rainfall 0.00 in
Snow Depth Not available.
UV 0 out of 12
Pollen .90 out of 12
Air Quality Not available.
Flu Activity Sporadic
METAR KY63 231215Z AUTO 17006KT 5SM BR CLR 05/05 A2995 RMK AO2 T00500050

More Conditions Fewer Conditions

Pressure 29.95 in
Visibility 5.0 miles
Clouds Clear
Windchill 36 °F
Dew Point 41 °F
Humidity 100%
Rainfall 0.00 in
Snow Depth Not available.
UV 0 out of 12
Pollen .90 out of 12
Air Quality Not available.
Flu Activity Sporadic
METAR KY63 231215Z AUTO 17006KT 5SM BR CLR 05/05 A2995 RMK AO2 T00500050

More Conditions Fewer Conditions

Nowcast | as of 7:20 am CDT on October 23, 2014

Patchy dense fog will persist until 9 am near Wadena...Elbow Lake and Fergus Falls. Visibility will be reduced to less than one quarter mile at times...so use caution.

×

10-Day Weather Forecast

Almanac

Astronomy

Oct. 23, 2014 Rise Set
Actual Time 7:51 AM CDT 6:23 PM CDT
Civil Twilight 7:21 AM CDT 6:54 PM CDT
Nautical Twilight 6:46 AM CDT 7:29 PM CDT
Astronomical Twilight 6:11 AM CDT 8:03 PM CDT
Moon 7:31 AM CDT 6:26 PM CDT
Length of Visible Light 11h 33m
Length of Day
10h 32m
Tomorrow will be 3m 2s shorter.
Waning Crescent, 0% of the Moon is Illuminated
Today
Waning Crescent
Oct 23
New
Oct 30
First Quarter
Nov 6
Full
Nov 14
Last Quarter

Today's Extremes

State Highs State Lows

Community

WunderPhotos

Upload Photos

1,764,211 photos uploaded!

WunderBlogs® & News

Nearby

Snow Depth

Station Depth Elevation
No new snow has been reported.

Earthquake Activity

City Distance Mag. Time & Date
No recent earthquake activity has been reported nearby.
Minimum magnitude displayed is 2.5.

Coastal Water Temperatures

Place Temperature
No Stations Reporting

Nearby Weather Stations